sensor_id;sensor_type;location;lat;lon;timestamp;P1;durP1;ratioP1;P2;durP2;ratioP2
39860;SDS011;25529;49.346;20.886;2023-04-16T00:00:56;34.58;;;15.98;;
39860;SDS011;25529;49.346;20.886;2023-04-16T00:03:21;31.35;;;15.10;;
39860;SDS011;25529;49.346;20.886;2023-04-16T00:11:53;30.73;;;14.10;;
39860;SDS011;25529;49.346;20.886;2023-04-16T00:17:21;31.80;;;14.73;;
39860;SDS011;25529;49.346;20.886;2023-04-16T00:19:46;29.60;;;13.77;;
39860;SDS011;25529;49.346;20.886;2023-04-16T00:22:12;32.28;;;16.02;;
39860;SDS011;25529;49.346;20.886;2023-04-16T00:24:37;32.15;;;15.48;;
39860;SDS011;25529;49.346;20.886;2023-04-16T00:39:14;32.78;;;14.93;;
39860;SDS011;25529;49.346;20.886;2023-04-16T00:41:42;33.20;;;15.18;;
39860;SDS011;25529;49.346;20.886;2023-04-16T00:44:30;30.88;;;14.90;;
39860;SDS011;25529;49.346;20.886;2023-04-16T01:02:17;35.35;;;16.10;;
39860;SDS011;25529;49.346;20.886;2023-04-16T01:07:45;32.80;;;15.73;;
39860;SDS011;25529;49.346;20.886;2023-04-16T01:10:10;33.13;;;16.05;;
39860;SDS011;25529;49.346;20.886;2023-04-16T01:18:31;36.20;;;17.23;;
39860;SDS011;25529;49.346;20.886;2023-04-16T01:24:03;38.63;;;18.20;;
39860;SDS011;25529;49.346;20.886;2023-04-16T01:29:31;35.45;;;17.70;;
39860;SDS011;25529;49.346;20.886;2023-04-16T01:34:59;34.97;;;16.83;;
39860;SDS011;25529;49.346;20.886;2023-04-16T01:40:27;32.67;;;16.47;;
39860;SDS011;25529;49.346;20.886;2023-04-16T01:42:53;32.17;;;15.02;;
39860;SDS011;25529;49.346;20.886;2023-04-16T01:45:18;32.38;;;15.90;;
39860;SDS011;25529;49.346;20.886;2023-04-16T01:50:46;34.85;;;15.18;;
39860;SDS011;25529;49.346;20.886;2023-04-16T01:53:11;33.65;;;15.95;;
39860;SDS011;25529;49.346;20.886;2023-04-16T01:58:41;33.22;;;16.33;;
39860;SDS011;25529;49.346;20.886;2023-04-16T02:01:17;32.90;;;15.02;;
39860;SDS011;25529;49.346;20.886;2023-04-16T02:09:48;32.10;;;13.93;;
39860;SDS011;25529;49.346;20.886;2023-04-16T02:15:17;30.63;;;14.33;;
39860;SDS011;25529;49.346;20.886;2023-04-16T02:20:18;32.25;;;14.65;;
39860;SDS011;25529;49.346;20.886;2023-04-16T02:22:44;32.20;;;15.38;;
39860;SDS011;25529;49.346;20.886;2023-04-16T02:25:12;32.95;;;15.45;;
39860;SDS011;25529;49.346;20.886;2023-04-16T02:30:41;31.03;;;14.80;;
39860;SDS011;25529;49.346;20.886;2023-04-16T02:36:09;34.63;;;16.00;;
39860;SDS011;25529;49.346;20.886;2023-04-16T02:41:38;34.15;;;15.10;;
39860;SDS011;25529;49.346;20.886;2023-04-16T02:47:06;29.65;;;13.05;;
39860;SDS011;25529;49.346;20.886;2023-04-16T02:55:37;25.77;;;11.40;;
39860;SDS011;25529;49.346;20.886;2023-04-16T02:58:02;26.85;;;11.85;;
39860;SDS011;25529;49.346;20.886;2023-04-16T03:09:36;28.55;;;11.77;;
39860;SDS011;25529;49.346;20.886;2023-04-16T03:17:54;25.35;;;10.88;;
39860;SDS011;25529;49.346;20.886;2023-04-16T03:26:33;29.42;;;13.02;;
39860;SDS011;25529;49.346;20.886;2023-04-16T03:35:16;31.52;;;14.05;;
39860;SDS011;25529;49.346;20.886;2023-04-16T03:37:41;28.58;;;12.45;;
39860;SDS011;25529;49.346;20.886;2023-04-16T03:43:09;23.83;;;8.95;;
39860;SDS011;25529;49.346;20.886;2023-04-16T03:48:37;22.97;;;9.83;;
39860;SDS011;25529;49.346;20.886;2023-04-16T03:54:05;23.17;;;9.45;;
39860;SDS011;25529;49.346;20.886;2023-04-16T03:56:31;23.90;;;9.10;;
39860;SDS011;25529;49.346;20.886;2023-04-16T04:01:51;22.80;;;8.70;;
39860;SDS011;25529;49.346;20.886;2023-04-16T04:07:19;25.13;;;9.95;;
39860;SDS011;25529;49.346;20.886;2023-04-16T04:09:47;23.63;;;9.38;;
39860;SDS011;25529;49.346;20.886;2023-04-16T04:15:21;22.02;;;8.30;;
39860;SDS011;25529;49.346;20.886;2023-04-16T04:20:56;21.45;;;7.45;;
39860;SDS011;25529;49.346;20.886;2023-04-16T04:26:24;21.20;;;8.05;;
39860;SDS011;25529;49.346;20.886;2023-04-16T04:31:52;21.77;;;7.45;;
39860;SDS011;25529;49.346;20.886;2023-04-16T04:37:22;21.52;;;7.90;;
39860;SDS011;25529;49.346;20.886;2023-04-16T04:42:50;24.20;;;8.32;;
39860;SDS011;25529;49.346;20.886;2023-04-16T04:48:18;21.30;;;7.65;;
39860;SDS011;25529;49.346;20.886;2023-04-16T04:53:47;20.98;;;8.23;;
39860;SDS011;25529;49.346;20.886;2023-04-16T04:56:12;20.52;;;7.60;;
39860;SDS011;25529;49.346;20.886;2023-04-16T04:58:38;22.02;;;9.10;;
39860;SDS011;25529;49.346;20.886;2023-04-16T05:01:04;20.05;;;7.78;;
39860;SDS011;25529;49.346;20.886;2023-04-16T05:03:30;20.80;;;7.47;;
39860;SDS011;25529;49.346;20.886;2023-04-16T05:05:55;20.50;;;7.28;;
39860;SDS011;25529;49.346;20.886;2023-04-16T05:08:20;20.67;;;7.50;;
39860;SDS011;25529;49.346;20.886;2023-04-16T05:10:46;24.88;;;11.57;;
39860;SDS011;25529;49.346;20.886;2023-04-16T05:13:11;27.27;;;14.10;;
39860;SDS011;25529;49.346;20.886;2023-04-16T05:15:36;36.67;;;21.27;;
39860;SDS011;25529;49.346;20.886;2023-04-16T05:18:02;31.95;;;18.77;;
39860;SDS011;25529;49.346;20.886;2023-04-16T05:20:27;23.17;;;10.10;;
39860;SDS011;25529;49.346;20.886;2023-04-16T05:22:53;23.58;;;8.43;;
39860;SDS011;25529;49.346;20.886;2023-04-16T05:25:19;22.52;;;8.13;;
39860;SDS011;25529;49.346;20.886;2023-04-16T05:27:45;25.63;;;12.32;;
39860;SDS011;25529;49.346;20.886;2023-04-16T05:30:11;25.75;;;13.20;;
39860;SDS011;25529;49.346;20.886;2023-04-16T05:32:37;27.08;;;15.40;;
39860;SDS011;25529;49.346;20.886;2023-04-16T05:35:03;27.92;;;15.75;;
39860;SDS011;25529;49.346;20.886;2023-04-16T05:37:28;27.63;;;14.98;;
39860;SDS011;25529;49.346;20.886;2023-04-16T05:39:54;24.60;;;12.27;;
39860;SDS011;25529;49.346;20.886;2023-04-16T05:42:19;24.65;;;10.30;;
39860;SDS011;25529;49.346;20.886;2023-04-16T05:44:44;27.55;;;12.27;;
39860;SDS011;25529;49.346;20.886;2023-04-16T05:47:10;20.40;;;7.25;;
39860;SDS011;25529;49.346;20.886;2023-04-16T05:58:31;30.33;;;14.55;;
39860;SDS011;25529;49.346;20.886;2023-04-16T06:00:56;23.92;;;10.45;;
39860;SDS011;25529;49.346;20.886;2023-04-16T06:03:22;25.52;;;11.00;;
39860;SDS011;25529;49.346;20.886;2023-04-16T06:05:47;25.00;;;11.60;;
39860;SDS011;25529;49.346;20.886;2023-04-16T06:08:12;19.90;;;7.18;;
39860;SDS011;25529;49.346;20.886;2023-04-16T06:10:38;21.40;;;7.43;;
39860;SDS011;25529;49.346;20.886;2023-04-16T06:13:03;19.10;;;7.10;;
39860;SDS011;25529;49.346;20.886;2023-04-16T06:15:28;25.23;;;11.05;;
39860;SDS011;25529;49.346;20.886;2023-04-16T06:17:55;22.23;;;8.60;;
39860;SDS011;25529;49.346;20.886;2023-04-16T06:20:20;19.95;;;8.00;;
39860;SDS011;25529;49.346;20.886;2023-04-16T06:22:46;20.63;;;7.82;;
39860;SDS011;25529;49.346;20.886;2023-04-16T06:25:11;21.33;;;7.93;;
39860;SDS011;25529;49.346;20.886;2023-04-16T06:27:36;21.42;;;7.93;;
39860;SDS011;25529;49.346;20.886;2023-04-16T06:30:02;20.17;;;8.23;;
39860;SDS011;25529;49.346;20.886;2023-04-16T06:32:27;21.50;;;8.48;;
39860;SDS011;25529;49.346;20.886;2023-04-16T06:34:53;21.10;;;8.25;;
39860;SDS011;25529;49.346;20.886;2023-04-16T06:37:19;20.05;;;7.75;;
39860;SDS011;25529;49.346;20.886;2023-04-16T06:42:47;21.55;;;8.77;;
39860;SDS011;25529;49.346;20.886;2023-04-16T06:45:13;19.85;;;7.70;;
39860;SDS011;25529;49.346;20.886;2023-04-16T06:47:38;18.65;;;7.28;;
39860;SDS011;25529;49.346;20.886;2023-04-16T06:50:04;19.55;;;7.20;;
39860;SDS011;25529;49.346;20.886;2023-04-16T06:52:29;20.00;;;6.90;;
39860;SDS011;25529;49.346;20.886;2023-04-16T06:54:55;18.08;;;6.60;;
39860;SDS011;25529;49.346;20.886;2023-04-16T06:57:20;20.45;;;7.18;;
39860;SDS011;25529;49.346;20.886;2023-04-16T06:59:45;18.30;;;6.82;;
39860;SDS011;25529;49.346;20.886;2023-04-16T07:02:15;19.70;;;6.95;;
39860;SDS011;25529;49.346;20.886;2023-04-16T07:04:44;28.23;;;12.73;;
39860;SDS011;25529;49.346;20.886;2023-04-16T07:07:09;28.30;;;13.70;;
39860;SDS011;25529;49.346;20.886;2023-04-16T07:09:35;21.05;;;7.97;;
39860;SDS011;25529;49.346;20.886;2023-04-16T07:12:01;20.08;;;7.00;;
39860;SDS011;25529;49.346;20.886;2023-04-16T07:14:26;19.95;;;7.00;;
39860;SDS011;25529;49.346;20.886;2023-04-16T07:16:51;18.00;;;6.47;;
39860;SDS011;25529;49.346;20.886;2023-04-16T07:19:17;18.85;;;6.72;;
39860;SDS011;25529;49.346;20.886;2023-04-16T07:21:49;19.10;;;6.97;;
39860;SDS011;25529;49.346;20.886;2023-04-16T07:24:16;18.70;;;6.68;;
39860;SDS011;25529;49.346;20.886;2023-04-16T07:26:41;18.60;;;6.95;;
39860;SDS011;25529;49.346;20.886;2023-04-16T07:29:06;18.65;;;6.50;;
39860;SDS011;25529;49.346;20.886;2023-04-16T07:31:32;17.95;;;6.53;;
39860;SDS011;25529;49.346;20.886;2023-04-16T07:33:57;18.75;;;6.93;;
39860;SDS011;25529;49.346;20.886;2023-04-16T07:36:23;18.38;;;6.45;;
39860;SDS011;25529;49.346;20.886;2023-04-16T07:39:03;26.65;;;12.95;;
39860;SDS011;25529;49.346;20.886;2023-04-16T07:41:33;33.88;;;18.33;;
39860;SDS011;25529;49.346;20.886;2023-04-16T07:43:58;24.63;;;10.55;;
39860;SDS011;25529;49.346;20.886;2023-04-16T07:46:24;19.10;;;7.20;;
39860;SDS011;25529;49.346;20.886;2023-04-16T07:48:49;17.48;;;6.55;;
39860;SDS011;25529;49.346;20.886;2023-04-16T07:51:14;29.20;;;13.70;;
39860;SDS011;25529;49.346;20.886;2023-04-16T07:53:40;28.65;;;13.80;;
39860;SDS011;25529;49.346;20.886;2023-04-16T07:56:07;20.40;;;8.45;;
39860;SDS011;25529;49.346;20.886;2023-04-16T07:58:32;16.25;;;5.85;;
39860;SDS011;25529;49.346;20.886;2023-04-16T08:00:58;14.18;;;5.00;;
39860;SDS011;25529;49.346;20.886;2023-04-16T08:03:23;12.40;;;4.57;;
39860;SDS011;25529;49.346;20.886;2023-04-16T08:05:52;10.52;;;4.35;;
39860;SDS011;25529;49.346;20.886;2023-04-16T08:08:19;11.35;;;4.40;;
39860;SDS011;25529;49.346;20.886;2023-04-16T08:10:44;10.65;;;4.40;;
39860;SDS011;25529;49.346;20.886;2023-04-16T08:13:10;10.27;;;4.53;;
39860;SDS011;25529;49.346;20.886;2023-04-16T08:18:37;11.65;;;4.07;;
39860;SDS011;25529;49.346;20.886;2023-04-16T08:21:03;10.45;;;4.38;;
39860;SDS011;25529;49.346;20.886;2023-04-16T08:23:28;9.07;;;3.97;;
39860;SDS011;25529;49.346;20.886;2023-04-16T08:28:56;5.85;;;3.50;;
39860;SDS011;25529;49.346;20.886;2023-04-16T08:31:22;7.63;;;3.60;;
39860;SDS011;25529;49.346;20.886;2023-04-16T08:33:48;6.22;;;3.28;;
39860;SDS011;25529;49.346;20.886;2023-04-16T08:36:14;7.50;;;3.40;;
39860;SDS011;25529;49.346;20.886;2023-04-16T08:39:01;5.15;;;3.40;;
39860;SDS011;25529;49.346;20.886;2023-04-16T08:41:26;11.30;;;4.45;;
39860;SDS011;25529;49.346;20.886;2023-04-16T08:46:33;16.80;;;5.80;;
39860;SDS011;25529;49.346;20.886;2023-04-16T08:49:00;14.50;;;4.80;;
39860;SDS011;25529;49.346;20.886;2023-04-16T08:51:28;8.05;;;3.60;;
39860;SDS011;25529;49.346;20.886;2023-04-16T08:54:13;7.53;;;3.60;;
39860;SDS011;25529;49.346;20.886;2023-04-16T08:56:41;5.25;;;3.35;;
39860;SDS011;25529;49.346;20.886;2023-04-16T08:59:07;8.57;;;3.60;;
39860;SDS011;25529;49.346;20.886;2023-04-16T09:01:33;7.65;;;3.50;;
39860;SDS011;25529;49.346;20.886;2023-04-16T09:03:59;5.22;;;3.42;;
39860;SDS011;25529;49.346;20.886;2023-04-16T09:06:27;6.35;;;3.53;;
39860;SDS011;25529;49.346;20.886;2023-04-16T09:11:55;8.23;;;3.70;;
39860;SDS011;25529;49.346;20.886;2023-04-16T09:14:20;7.00;;;3.60;;
39860;SDS011;25529;49.346;20.886;2023-04-16T09:16:46;6.30;;;3.40;;
39860;SDS011;25529;49.346;20.886;2023-04-16T09:19:13;8.07;;;3.58;;
39860;SDS011;25529;49.346;20.886;2023-04-16T09:21:56;8.20;;;3.67;;
39860;SDS011;25529;49.346;20.886;2023-04-16T09:26:47;8.27;;;3.40;;
39860;SDS011;25529;49.346;20.886;2023-04-16T09:29:21;6.35;;;3.50;;
39860;SDS011;25529;49.346;20.886;2023-04-16T09:38:21;5.78;;;3.20;;
39860;SDS011;25529;49.346;20.886;2023-04-16T09:40:47;4.80;;;3.30;;
39860;SDS011;25529;49.346;20.886;2023-04-16T09:43:13;5.20;;;3.22;;
39860;SDS011;25529;49.346;20.886;2023-04-16T09:45:52;4.63;;;3.00;;
39860;SDS011;25529;49.346;20.886;2023-04-16T09:48:27;10.93;;;3.88;;
39860;SDS011;25529;49.346;20.886;2023-04-16T09:50:53;8.88;;;3.55;;
39860;SDS011;25529;49.346;20.886;2023-04-16T09:53:29;8.23;;;3.63;;
39860;SDS011;25529;49.346;20.886;2023-04-16T09:56:01;8.77;;;3.40;;
39860;SDS011;25529;49.346;20.886;2023-04-16T09:58:27;4.38;;;2.53;;
39860;SDS011;25529;49.346;20.886;2023-04-16T10:01:10;6.22;;;3.00;;
39860;SDS011;25529;49.346;20.886;2023-04-16T10:03:37;5.60;;;3.00;;
39860;SDS011;25529;49.346;20.886;2023-04-16T10:06:07;6.47;;;3.35;;
39860;SDS011;25529;49.346;20.886;2023-04-16T10:08:36;10.98;;;4.32;;
39860;SDS011;25529;49.346;20.886;2023-04-16T10:13:31;11.43;;;4.03;;
39860;SDS011;25529;49.346;20.886;2023-04-16T10:18:37;9.77;;;3.78;;
39860;SDS011;25529;49.346;20.886;2023-04-16T10:21:02;8.45;;;3.30;;
39860;SDS011;25529;49.346;20.886;2023-04-16T10:23:28;6.07;;;3.13;;
39860;SDS011;25529;49.346;20.886;2023-04-16T10:25:56;12.07;;;3.78;;
39860;SDS011;25529;49.346;20.886;2023-04-16T10:28:27;13.05;;;4.22;;
39860;SDS011;25529;49.346;20.886;2023-04-16T10:30:55;9.50;;;3.75;;
39860;SDS011;25529;49.346;20.886;2023-04-16T10:33:23;10.90;;;4.00;;
39860;SDS011;25529;49.346;20.886;2023-04-16T10:35:49;9.50;;;3.80;;
39860;SDS011;25529;49.346;20.886;2023-04-16T10:38:23;8.23;;;3.60;;
39860;SDS011;25529;49.346;20.886;2023-04-16T10:40:49;18.05;;;5.75;;
39860;SDS011;25529;49.346;20.886;2023-04-16T10:43:18;36.22;;;17.13;;
39860;SDS011;25529;49.346;20.886;2023-04-16T10:45:46;26.20;;;10.75;;
39860;SDS011;25529;49.346;20.886;2023-04-16T10:48:12;19.65;;;6.90;;
39860;SDS011;25529;49.346;20.886;2023-04-16T10:50:39;14.52;;;4.88;;
39860;SDS011;25529;49.346;20.886;2023-04-16T10:53:15;13.52;;;4.50;;
39860;SDS011;25529;49.346;20.886;2023-04-16T10:55:48;10.45;;;4.15;;
39860;SDS011;25529;49.346;20.886;2023-04-16T12:34:59;18.40;;;6.03;;
39860;SDS011;25529;49.346;20.886;2023-04-16T12:37:25;19.67;;;5.20;;
39860;SDS011;25529;49.346;20.886;2023-04-16T12:39:50;5.10;;;3.20;;
39860;SDS011;25529;49.346;20.886;2023-04-16T12:42:16;6.10;;;3.38;;
39860;SDS011;25529;49.346;20.886;2023-04-16T12:44:41;4.15;;;2.70;;
39860;SDS011;25529;49.346;20.886;2023-04-16T12:47:06;4.43;;;2.70;;
39860;SDS011;25529;49.346;20.886;2023-04-16T12:49:32;2.97;;;2.78;;
39860;SDS011;25529;49.346;20.886;2023-04-16T12:51:57;3.13;;;2.75;;
39860;SDS011;25529;49.346;20.886;2023-04-16T12:54:23;3.22;;;2.53;;
39860;SDS011;25529;49.346;20.886;2023-04-16T12:56:48;5.93;;;3.10;;
39860;SDS011;25529;49.346;20.886;2023-04-16T12:59:13;17.10;;;4.90;;
39860;SDS011;25529;49.346;20.886;2023-04-16T13:01:39;48.85;;;30.63;;
39860;SDS011;25529;49.346;20.886;2023-04-16T13:04:04;22.10;;;9.18;;
39860;SDS011;25529;49.346;20.886;2023-04-16T13:06:30;9.43;;;3.90;;
39860;SDS011;25529;49.346;20.886;2023-04-16T13:08:59;3.17;;;2.85;;
39860;SDS011;25529;49.346;20.886;2023-04-16T13:11:25;3.83;;;2.50;;
39860;SDS011;25529;49.346;20.886;2023-04-16T13:13:52;5.32;;;2.80;;
39860;SDS011;25529;49.346;20.886;2023-04-16T13:16:18;3.17;;;2.80;;
39860;SDS011;25529;49.346;20.886;2023-04-16T13:18:43;3.67;;;2.80;;
39860;SDS011;25529;49.346;20.886;2023-04-16T13:21:09;4.28;;;2.78;;
39860;SDS011;25529;49.346;20.886;2023-04-16T13:23:35;3.13;;;2.78;;
39860;SDS011;25529;49.346;20.886;2023-04-16T13:26:00;2.53;;;2.33;;
39860;SDS011;25529;49.346;20.886;2023-04-16T13:28:25;3.90;;;2.45;;
39860;SDS011;25529;49.346;20.886;2023-04-16T13:30:51;4.70;;;2.67;;
39860;SDS011;25529;49.346;20.886;2023-04-16T13:33:17;3.60;;;2.63;;
39860;SDS011;25529;49.346;20.886;2023-04-16T13:35:42;9.15;;;3.65;;
39860;SDS011;25529;49.346;20.886;2023-04-16T13:38:07;4.60;;;2.83;;
39860;SDS011;25529;49.346;20.886;2023-04-16T13:40:33;2.83;;;2.60;;
39860;SDS011;25529;49.346;20.886;2023-04-16T13:42:58;4.38;;;2.83;;
39860;SDS011;25529;49.346;20.886;2023-04-16T13:45:23;3.28;;;2.78;;
39860;SDS011;25529;49.346;20.886;2023-04-16T13:47:49;4.30;;;2.83;;
39860;SDS011;25529;49.346;20.886;2023-04-16T13:50:14;4.00;;;2.70;;
39860;SDS011;25529;49.346;20.886;2023-04-16T13:52:40;2.95;;;2.60;;
39860;SDS011;25529;49.346;20.886;2023-04-16T13:55:07;3.33;;;2.72;;
39860;SDS011;25529;49.346;20.886;2023-04-16T14:00:03;3.38;;;2.58;;
39860;SDS011;25529;49.346;20.886;2023-04-16T14:02:29;3.85;;;2.70;;
39860;SDS011;25529;49.346;20.886;2023-04-16T14:04:54;4.07;;;2.53;;
39860;SDS011;25529;49.346;20.886;2023-04-16T14:07:20;2.92;;;2.70;;
39860;SDS011;25529;49.346;20.886;2023-04-16T14:09:49;11.00;;;3.88;;
39860;SDS011;25529;49.346;20.886;2023-04-16T14:12:14;13.60;;;4.78;;
39860;SDS011;25529;49.346;20.886;2023-04-16T14:14:40;22.27;;;8.40;;
39860;SDS011;25529;49.346;20.886;2023-04-16T14:17:06;16.45;;;5.32;;
39860;SDS011;25529;49.346;20.886;2023-04-16T14:19:31;10.85;;;4.05;;
39860;SDS011;25529;49.346;20.886;2023-04-16T14:21:56;5.57;;;3.40;;
39860;SDS011;25529;49.346;20.886;2023-04-16T14:24:22;5.75;;;3.00;;
39860;SDS011;25529;49.346;20.886;2023-04-16T14:26:47;4.78;;;3.05;;
39860;SDS011;25529;49.346;20.886;2023-04-16T14:29:12;3.20;;;2.65;;
39860;SDS011;25529;49.346;20.886;2023-04-16T14:31:37;10.27;;;3.50;;
39860;SDS011;25529;49.346;20.886;2023-04-16T14:34:03;5.72;;;3.22;;
39860;SDS011;25529;49.346;20.886;2023-04-16T14:36:31;8.40;;;3.45;;
39860;SDS011;25529;49.346;20.886;2023-04-16T14:38:56;5.72;;;3.10;;
39860;SDS011;25529;49.346;20.886;2023-04-16T14:41:22;7.88;;;3.20;;
39860;SDS011;25529;49.346;20.886;2023-04-16T14:43:47;4.38;;;2.90;;
39860;SDS011;25529;49.346;20.886;2023-04-16T14:46:12;3.20;;;2.90;;
39860;SDS011;25529;49.346;20.886;2023-04-16T14:48:41;4.60;;;2.90;;
39860;SDS011;25529;49.346;20.886;2023-04-16T14:51:06;8.48;;;3.50;;
39860;SDS011;25529;49.346;20.886;2023-04-16T14:53:32;12.18;;;4.13;;
39860;SDS011;25529;49.346;20.886;2023-04-16T14:55:58;10.20;;;3.90;;
39860;SDS011;25529;49.346;20.886;2023-04-16T14:58:24;6.03;;;3.40;;
39860;SDS011;25529;49.346;20.886;2023-04-16T15:00:52;4.60;;;3.00;;
39860;SDS011;25529;49.346;20.886;2023-04-16T15:03:17;5.38;;;3.30;;
39860;SDS011;25529;49.346;20.886;2023-04-16T15:05:43;6.00;;;3.00;;
39860;SDS011;25529;49.346;20.886;2023-04-16T15:08:11;6.25;;;3.00;;
39860;SDS011;25529;49.346;20.886;2023-04-16T15:10:36;7.35;;;3.00;;
39860;SDS011;25529;49.346;20.886;2023-04-16T15:13:02;3.55;;;2.90;;
39860;SDS011;25529;49.346;20.886;2023-04-16T15:15:27;4.35;;;2.88;;
39860;SDS011;25529;49.346;20.886;2023-04-16T15:17:53;8.80;;;3.55;;
39860;SDS011;25529;49.346;20.886;2023-04-16T15:20:20;10.82;;;3.78;;
39860;SDS011;25529;49.346;20.886;2023-04-16T15:22:45;13.20;;;4.65;;
39860;SDS011;25529;49.346;20.886;2023-04-16T15:25:11;7.80;;;3.75;;
39860;SDS011;25529;49.346;20.886;2023-04-16T15:27:36;11.38;;;4.40;;
39860;SDS011;25529;49.346;20.886;2023-04-16T15:30:01;25.98;;;7.53;;
39860;SDS011;25529;49.346;20.886;2023-04-16T15:32:27;14.23;;;4.65;;
39860;SDS011;25529;49.346;20.886;2023-04-16T15:34:52;14.68;;;5.05;;
39860;SDS011;25529;49.346;20.886;2023-04-16T15:37:17;6.07;;;3.38;;
39860;SDS011;25529;49.346;20.886;2023-04-16T15:39:43;8.52;;;3.50;;
39860;SDS011;25529;49.346;20.886;2023-04-16T15:42:08;15.35;;;4.53;;
39860;SDS011;25529;49.346;20.886;2023-04-16T15:44:35;17.92;;;5.00;;
39860;SDS011;25529;49.346;20.886;2023-04-16T15:47:00;15.50;;;4.53;;
39860;SDS011;25529;49.346;20.886;2023-04-16T15:49:25;6.28;;;3.50;;
39860;SDS011;25529;49.346;20.886;2023-04-16T15:51:51;6.13;;;3.30;;
39860;SDS011;25529;49.346;20.886;2023-04-16T15:54:20;7.35;;;3.22;;
39860;SDS011;25529;49.346;20.886;2023-04-16T15:56:45;6.47;;;3.10;;
39860;SDS011;25529;49.346;20.886;2023-04-16T15:59:11;8.35;;;3.75;;
39860;SDS011;25529;49.346;20.886;2023-04-16T16:01:36;16.23;;;4.88;;
39860;SDS011;25529;49.346;20.886;2023-04-16T16:04:02;11.43;;;3.90;;
39860;SDS011;25529;49.346;20.886;2023-04-16T16:06:27;8.65;;;3.40;;
39860;SDS011;25529;49.346;20.886;2023-04-16T16:08:53;13.05;;;4.25;;
39860;SDS011;25529;49.346;20.886;2023-04-16T16:11:18;10.75;;;3.97;;
39860;SDS011;25529;49.346;20.886;2023-04-16T16:13:44;7.70;;;3.80;;
39860;SDS011;25529;49.346;20.886;2023-04-16T16:16:09;12.00;;;4.00;;
39860;SDS011;25529;49.346;20.886;2023-04-16T16:18:35;8.68;;;3.88;;
39860;SDS011;25529;49.346;20.886;2023-04-16T16:21:00;12.60;;;4.30;;
39860;SDS011;25529;49.346;20.886;2023-04-16T16:23:26;10.65;;;3.78;;
39860;SDS011;25529;49.346;20.886;2023-04-16T16:25:51;8.15;;;3.80;;
39860;SDS011;25529;49.346;20.886;2023-04-16T16:28:16;13.73;;;4.43;;
39860;SDS011;25529;49.346;20.886;2023-04-16T16:30:42;9.35;;;3.92;;
39860;SDS011;25529;49.346;20.886;2023-04-16T16:36:12;8.77;;;3.92;;
39860;SDS011;25529;49.346;20.886;2023-04-16T16:38:37;9.73;;;3.90;;
39860;SDS011;25529;49.346;20.886;2023-04-16T16:41:04;10.07;;;3.92;;
39860;SDS011;25529;49.346;20.886;2023-04-16T16:43:30;12.18;;;4.10;;
39860;SDS011;25529;49.346;20.886;2023-04-16T16:45:55;10.13;;;3.88;;
39860;SDS011;25529;49.346;20.886;2023-04-16T16:48:21;10.43;;;4.07;;
39860;SDS011;25529;49.346;20.886;2023-04-16T16:50:46;13.52;;;4.63;;
39860;SDS011;25529;49.346;20.886;2023-04-16T16:53:11;15.93;;;5.63;;
39860;SDS011;25529;49.346;20.886;2023-04-16T16:55:37;36.15;;;19.98;;
39860;SDS011;25529;49.346;20.886;2023-04-16T16:58:02;25.10;;;10.52;;
39860;SDS011;25529;49.346;20.886;2023-04-16T17:00:27;21.67;;;8.35;;
39860;SDS011;25529;49.346;20.886;2023-04-16T17:02:53;20.40;;;9.02;;
39860;SDS011;25529;49.346;20.886;2023-04-16T17:05:18;21.65;;;8.82;;
39860;SDS011;25529;49.346;20.886;2023-04-16T17:07:43;28.70;;;13.52;;
39860;SDS011;25529;49.346;20.886;2023-04-16T17:10:09;22.42;;;9.13;;
39860;SDS011;25529;49.346;20.886;2023-04-16T17:12:40;14.05;;;4.55;;
39860;SDS011;25529;49.346;20.886;2023-04-16T17:15:05;21.42;;;7.85;;
39860;SDS011;25529;49.346;20.886;2023-04-16T17:17:32;10.82;;;4.22;;
39860;SDS011;25529;49.346;20.886;2023-04-16T17:19:57;7.35;;;3.65;;
39860;SDS011;25529;49.346;20.886;2023-04-16T17:22:24;12.75;;;3.97;;
39860;SDS011;25529;49.346;20.886;2023-04-16T17:24:52;7.97;;;3.60;;
39860;SDS011;25529;49.346;20.886;2023-04-16T17:27:18;8.88;;;3.85;;
39860;SDS011;25529;49.346;20.886;2023-04-16T17:29:43;9.77;;;3.72;;
39860;SDS011;25529;49.346;20.886;2023-04-16T17:32:09;9.18;;;3.90;;
39860;SDS011;25529;49.346;20.886;2023-04-16T17:34:34;9.45;;;3.97;;
39860;SDS011;25529;49.346;20.886;2023-04-16T17:37:00;10.65;;;3.90;;
39860;SDS011;25529;49.346;20.886;2023-04-16T17:39:25;9.52;;;3.88;;
39860;SDS011;25529;49.346;20.886;2023-04-16T17:41:50;10.68;;;3.95;;
39860;SDS011;25529;49.346;20.886;2023-04-16T17:44:18;10.18;;;4.40;;
39860;SDS011;25529;49.346;20.886;2023-04-16T17:46:44;10.98;;;4.38;;
39860;SDS011;25529;49.346;20.886;2023-04-16T17:49:09;11.73;;;4.40;;
39860;SDS011;25529;49.346;20.886;2023-04-16T17:51:37;12.02;;;4.43;;
39860;SDS011;25529;49.346;20.886;2023-04-16T17:54:02;14.43;;;4.80;;
39860;SDS011;25529;49.346;20.886;2023-04-16T17:56:28;12.45;;;4.80;;
39860;SDS011;25529;49.346;20.886;2023-04-16T17:58:53;13.57;;;5.00;;
39860;SDS011;25529;49.346;20.886;2023-04-16T18:01:19;14.82;;;5.05;;
39860;SDS011;25529;49.346;20.886;2023-04-16T18:03:44;17.05;;;5.80;;
39860;SDS011;25529;49.346;20.886;2023-04-16T18:06:09;20.27;;;7.32;;
39860;SDS011;25529;49.346;20.886;2023-04-16T18:08:35;18.25;;;6.07;;
39860;SDS011;25529;49.346;20.886;2023-04-16T18:11:04;17.25;;;5.65;;
39860;SDS011;25529;49.346;20.886;2023-04-16T18:13:30;17.45;;;6.22;;
39860;SDS011;25529;49.346;20.886;2023-04-16T18:15:55;19.85;;;6.10;;
39860;SDS011;25529;49.346;20.886;2023-04-16T18:18:20;18.63;;;6.57;;
39860;SDS011;25529;49.346;20.886;2023-04-16T18:20:46;19.00;;;6.07;;
39860;SDS011;25529;49.346;20.886;2023-04-16T18:23:11;20.63;;;6.30;;
39860;SDS011;25529;49.346;20.886;2023-04-16T18:25:36;19.63;;;6.60;;
39860;SDS011;25529;49.346;20.886;2023-04-16T18:28:02;20.77;;;6.60;;
39860;SDS011;25529;49.346;20.886;2023-04-16T18:30:29;18.83;;;6.43;;
39860;SDS011;25529;49.346;20.886;2023-04-16T18:32:54;15.05;;;5.25;;
39860;SDS011;25529;49.346;20.886;2023-04-16T18:35:20;15.23;;;5.45;;
39860;SDS011;25529;49.346;20.886;2023-04-16T18:37:45;16.40;;;5.30;;
39860;SDS011;25529;49.346;20.886;2023-04-16T18:40:11;16.80;;;5.65;;
39860;SDS011;25529;49.346;20.886;2023-04-16T18:42:36;17.33;;;5.65;;
39860;SDS011;25529;49.346;20.886;2023-04-16T18:45:01;16.08;;;5.47;;
39860;SDS011;25529;49.346;20.886;2023-04-16T18:47:27;17.73;;;5.78;;
39860;SDS011;25529;49.346;20.886;2023-04-16T18:49:52;17.30;;;5.70;;
39860;SDS011;25529;49.346;20.886;2023-04-16T18:52:18;18.38;;;6.25;;
39860;SDS011;25529;49.346;20.886;2023-04-16T18:54:43;17.58;;;6.18;;
39860;SDS011;25529;49.346;20.886;2023-04-16T18:57:09;25.33;;;9.98;;
39860;SDS011;25529;49.346;20.886;2023-04-16T18:59:34;29.90;;;18.92;;
39860;SDS011;25529;49.346;20.886;2023-04-16T19:01:59;20.08;;;7.15;;
39860;SDS011;25529;49.346;20.886;2023-04-16T19:04:25;16.25;;;6.10;;
39860;SDS011;25529;49.346;20.886;2023-04-16T19:06:50;19.00;;;5.97;;
39860;SDS011;25529;49.346;20.886;2023-04-16T19:09:15;20.13;;;6.78;;
39860;SDS011;25529;49.346;20.886;2023-04-16T19:11:43;21.52;;;7.97;;
39860;SDS011;25529;49.346;20.886;2023-04-16T19:14:08;22.58;;;7.80;;
39860;SDS011;25529;49.346;20.886;2023-04-16T19:16:34;21.02;;;6.63;;
39860;SDS011;25529;49.346;20.886;2023-04-16T19:18:59;20.27;;;7.43;;